Racecast

Mecolla Curtis

Maury (VA) · 11 · VA D5District XC · Compare head to head

Athlete rating 116.7
Best race 120.9 TF
Races 33
Seasons 3 2024 — 2026
Speed rating — all races

Track & Field

TF speed rating

2026 TF 120.6

Maury (VA) · Grade 11

Date Meet Event Result Place Rating Difficulty PR/SR Flags
2026-05-06 Eastern District Championship 800m 2:33.07 4th · 1st on team 120.6 -0.025 SR RSR
2026-05-06 Eastern District Championship 400m 1:04.54 14th · 4th on team -0.025 SR
2026-02-13 VHSL Class 5 Region B Indoor Championships 500m 1:22.52 4th · 1st on team -0.024 ★PR SR
2026-01-29 Eastern District Championship Meet 500m 1:25.09 6th · 1st on team -0.035 PR SR
2026-01-18 The VA Showcase 300m 44.6 265th · 5th on team -0.035 ★PR SR
2025-12-20 Grant Holloway Holiday Invitational 2026 300m 45.19 83rd · 3rd on team -0.035 PR SR
2025-12-18 Eastern District Meet #3 500m 1:26.71 2nd · 1st on team -0.024
2025-12-13 Virginia Beach HS Opener 500m 1:26 24th · 3rd on team -0.035 SR

2025 TF 115.5

Maury (VA) · Grade 10

Date Meet Event Result Place Rating Difficulty PR/SR Flags
2025-05-07 Eastern District Championship 800m 2:35.62 4th · 3rd on team 118.0 -0.029
2025-05-07 Eastern District Championship 400m 1:03.62 10th · 5th on team -0.029 ★PR SR
2025-05-03 Queen Harrison Track Classic Invitational 800m 2:31.68 3rd · 1st on team 120.9 -0.033 ★PR ★R SR RSR
2025-05-03 2nd Annual Queen Track Classic 800m 2:31.68 3rd · 1st on team 120.9 -0.033
2025-04-08 Eastern District Meet #2 400m 1:04.99 7th · 2nd on team -0.029 SR
2025-04-02 Eastern District #1 Meet 2025 400m 1:06.18 8th · 3rd on team -0.029 SR
2025-04-02 Eastern District #1 Meet 2025 800m 3:02.87 10th · 2nd on team 100.7 -0.029 SR
2025-02-18 VHSL Class 5 Region B Indoor Championships 1000m 3:25.37 4th · 2nd on team 116.9 -0.024 ★PR R SR RSR
2025-01-17 The VA Showcase 500m 1:25.76 68th · 2nd on team -0.035 PR SR
2024-12-21 Grant Holloway Invitational 300m 45.5 66th · 4th on team -0.035 PR SR
2024-12-12 Eastern District Meet #2 300m 46.78 7th · 3rd on team -0.024 PR SR
2024-12-03 Eastern District Meet #1 500m 1:28.54 4th · 2nd on team -0.024 PR SR

2024 TF 113.5

Empire Athletics (FL) · Grade 9

Date Meet Event Result Place Rating Difficulty PR/SR Flags
2024-06-08 AAU Virginia South District Qualifier 400m 1:04.83 15th · 1st on team -0.029 PR SR
2024-06-08 AAU Virginia South District Qualifier 200m 29.55 29th · 1st on team -0.029 ★PR SR
2024-05-26 HR Hurricanes CAT 5 Invite (CANCELED) (CANCELED) 400m 1:05.03 1st · 1st on team -0.018 PR SR
2024-05-17 VHSL Class 5 Region B Outdoor Championships 800m 2:41.52 6th · 2nd on team 113.4 -0.034 PR SR
2024-05-08 Eastern District Championship 800m 2:42.86 6th · 3rd on team 113.6 -0.029 PR R SR RSR
2024-05-01 Eastern District #3 Meet 400m 1:05.15 10th · 3rd on team -0.019 PR SR
2024-04-24 Eastern District Meet #2 400m 1:05.39 4th · 1st on team -0.028 PR SR
2024-04-20 Track 757 Invitational 400m 1:07.05 27th · 4th on team -0.030
2024-04-17 Peninsula District Meet #2 400m 1:07.05 27th · 4th on team -0.031 PR SR
2024-02-18 HRH Winter Storm Classic 200m 31.02 11th · 2nd on team -0.024 PR SR
2024-01-13 The VA Showcase 300m 47.53 244th · 6th on team -0.035 PR SR
2023-12-14 Eastern District Meet #1 300m 48.11 9th · 2nd on team -0.024 PR SR
2023-12-09 Virginia Beach HS Opener 300m 49.12 80th · 7th on team -0.035 PR SR